UAL1351 KSEA-KDEN
Flight info
| Callsign | UAL1351 |
|---|---|
| Flight time | 2h 9m |
| Altitude | 37000 |
| Route | SUMMA2 SUMMA J54 BKE PIH MJANE FLATI5 |
| Aircraft | A320/M-SDE3FGHIRWY/LB1 |
Departure
| Time | 2026-05-06 03:05 |
|---|---|
| Airport | Seattle–Tacoma International Airport (KSEA) |
Arrival
| Time | 2026-05-06 05:14 |
|---|---|
| Airport | Denver International Airport (KDEN) |
| Time | Latitude | Longitude | Altitude | Speed | Heading |
|---|---|---|---|---|---|
| 2026-05-06 02:34 | 47.43808 | -122.29752 | 384 ft | 0 kts | 14° |
| 2026-05-06 02:54 | 47.43802 | -122.29754 | 383 ft | 4 kts | 354° |
| 2026-05-06 02:54 | 47.43777 | -122.29754 | 383 ft | 4 kts | 7° |
| 2026-05-06 02:54 | 47.43765 | -122.29757 | 383 ft | 0 kts | 19° |
| 2026-05-06 02:56 | 47.43772 | -122.29757 | 383 ft | 1 kts | 352° |
| 2026-05-06 02:56 | 47.43786 | -122.29778 | 383 ft | 4 kts | 288° |
| 2026-05-06 02:56 | 47.43784 | -122.29833 | 383 ft | 8 kts | 269° |
| 2026-05-06 02:57 | 47.43783 | -122.29914 | 383 ft | 8 kts | 268° |
| 2026-05-06 02:57 | 47.43774 | -122.29999 | 383 ft | 9 kts | 258° |
| 2026-05-06 02:57 | 47.43760 | -122.30090 | 383 ft | 10 kts | 257° |
| 2026-05-06 02:57 | 47.43744 | -122.30191 | 383 ft | 11 kts | 257° |
| 2026-05-06 02:58 | 47.43727 | -122.30307 | 383 ft | 12 kts | 257° |
| 2026-05-06 02:58 | 47.43718 | -122.30446 | 383 ft | 15 kts | 275° |
| 2026-05-06 02:58 | 47.43723 | -122.30563 | 383 ft | 10 kts | 272° |
| 2026-05-06 02:58 | 47.43767 | -122.30634 | 383 ft | 11 kts | 355° |
| 2026-05-06 02:59 | 47.43850 | -122.30639 | 383 ft | 13 kts | 2° |
| 2026-05-06 02:59 | 47.43934 | -122.30635 | 383 ft | 13 kts | 0° |
| 2026-05-06 02:59 | 47.44030 | -122.30634 | 383 ft | 15 kts | 360° |
| 2026-05-06 02:59 | 47.44128 | -122.30634 | 383 ft | 14 kts | 0° |
| 2026-05-06 03:00 | 47.44230 | -122.30633 | 383 ft | 16 kts | 0° |
| 2026-05-06 03:00 | 47.44346 | -122.30632 | 383 ft | 18 kts | 0° |
| 2026-05-06 03:00 | 47.44473 | -122.30631 | 384 ft | 20 kts | 359° |
| 2026-05-06 03:00 | 47.44613 | -122.30632 | 384 ft | 19 kts | 2° |
| 2026-05-06 03:01 | 47.44752 | -122.30628 | 384 ft | 21 kts | 360° |
| 2026-05-06 03:01 | 47.44894 | -122.30627 | 384 ft | 21 kts | 359° |
| 2026-05-06 03:01 | 47.45045 | -122.30626 | 384 ft | 23 kts | 0° |
| 2026-05-06 03:01 | 47.45201 | -122.30624 | 384 ft | 21 kts | 1° |
| 2026-05-06 03:02 | 47.45357 | -122.30624 | 384 ft | 23 kts | 0° |
| 2026-05-06 03:02 | 47.45527 | -122.30623 | 384 ft | 25 kts | 0° |
| 2026-05-06 03:02 | 47.45710 | -122.30621 | 384 ft | 27 kts | 0° |
| 2026-05-06 03:02 | 47.45888 | -122.30619 | 384 ft | 22 kts | 0° |
| 2026-05-06 03:03 | 47.46046 | -122.30618 | 384 ft | 24 kts | 0° |
| 2026-05-06 03:03 | 47.46218 | -122.30617 | 384 ft | 26 kts | 0° |
| 2026-05-06 03:03 | 47.46328 | -122.30613 | 384 ft | 13 kts | 360° |
| 2026-05-06 03:03 | 47.46378 | -122.30705 | 384 ft | 14 kts | 264° |
| 2026-05-06 03:04 | 47.46333 | -122.30778 | 384 ft | 10 kts | 182° |
| 2026-05-06 03:04 | 47.46158 | -122.30779 | 384 ft | 55 kts | 180° |
| 2026-05-06 03:04 | 47.45565 | -122.30784 | 384 ft | 112 kts | 180° |
| 2026-05-06 03:04 | 47.44639 | -122.30794 | 386 ft | 157 kts | 180° |
| 2026-05-06 03:05 | 47.43546 | -122.30791 | 933 ft | 153 kts | 179° |
| 2026-05-06 03:05 | 47.42472 | -122.30797 | 1515 ft | 155 kts | 183° |
| 2026-05-06 03:05 | 47.41385 | -122.30827 | 2080 ft | 158 kts | 182° |
| 2026-05-06 03:05 | 47.40222 | -122.30841 | 2393 ft | 177 kts | 181° |
| 2026-05-06 03:06 | 47.38925 | -122.30824 | 2707 ft | 196 kts | 180° |
| 2026-05-06 03:06 | 47.37489 | -122.30817 | 2964 ft | 220 kts | 180° |
| 2026-05-06 03:06 | 47.35867 | -122.30824 | 3266 ft | 245 kts | 180° |
| 2026-05-06 03:06 | 47.34116 | -122.30842 | 3787 ft | 263 kts | 180° |
| 2026-05-06 03:07 | 47.32253 | -122.30866 | 4532 ft | 272 kts | 180° |
| 2026-05-06 03:07 | 47.30334 | -122.30889 | 5322 ft | 279 kts | 180° |
| 2026-05-06 03:07 | 47.28374 | -122.30910 | 6158 ft | 283 kts | 180° |
| 2026-05-06 03:07 | 47.26394 | -122.30929 | 7000 ft | 286 kts | 181° |
| 2026-05-06 03:08 | 47.24388 | -122.30955 | 7821 ft | 288 kts | 178° |
| 2026-05-06 03:08 | 47.22420 | -122.30309 | 8575 ft | 293 kts | 159° |
| 2026-05-06 03:08 | 47.20519 | -122.29174 | 9371 ft | 297 kts | 156° |
| 2026-05-06 03:08 | 47.18631 | -122.27984 | 10130 ft | 301 kts | 156° |
| 2026-05-06 03:09 | 47.16689 | -122.26780 | 10784 ft | 307 kts | 157° |
| 2026-05-06 03:09 | 47.14628 | -122.25588 | 11026 ft | 329 kts | 159° |
| 2026-05-06 03:09 | 47.12412 | -122.24401 | 11274 ft | 349 kts | 160° |
| 2026-05-06 03:09 | 47.10055 | -122.23176 | 11463 ft | 369 kts | 160° |
| 2026-05-06 03:10 | 47.07592 | -122.21927 | 11982 ft | 376 kts | 160° |
| 2026-05-06 03:10 | 47.05111 | -122.20674 | 12632 ft | 380 kts | 160° |
| 2026-05-06 03:10 | 47.02594 | -122.19399 | 13297 ft | 383 kts | 160° |
| 2026-05-06 03:10 | 47.00063 | -122.18112 | 13874 ft | 390 kts | 160° |
| 2026-05-06 03:11 | 46.97510 | -122.16814 | 14309 ft | 397 kts | 160° |
| 2026-05-06 03:11 | 46.94882 | -122.15479 | 14866 ft | 400 kts | 160° |
| 2026-05-06 03:11 | 46.92246 | -122.14146 | 15459 ft | 403 kts | 160° |
| 2026-05-06 03:11 | 46.89590 | -122.12798 | 15999 ft | 406 kts | 160° |
| 2026-05-06 03:12 | 46.86907 | -122.11427 | 16547 ft | 410 kts | 160° |
| 2026-05-06 03:12 | 46.84200 | -122.10043 | 17106 ft | 414 kts | 160° |
| 2026-05-06 03:12 | 46.81467 | -122.08662 | 17709 ft | 417 kts | 160° |
| 2026-05-06 03:12 | 46.78714 | -122.07288 | 18311 ft | 420 kts | 160° |
| 2026-05-06 03:13 | 46.75933 | -122.05907 | 18764 ft | 425 kts | 160° |
| 2026-05-06 03:13 | 46.73160 | -122.04527 | 19282 ft | 429 kts | 160° |
| 2026-05-06 03:13 | 46.70327 | -122.03114 | 19807 ft | 432 kts | 160° |
| 2026-05-06 03:13 | 46.67475 | -122.01661 | 20331 ft | 435 kts | 157° |
| 2026-05-06 03:14 | 46.64752 | -121.99706 | 20802 ft | 438 kts | 147° |
| 2026-05-06 03:14 | 46.62295 | -121.97105 | 21284 ft | 438 kts | 136° |
| 2026-05-06 03:14 | 46.60165 | -121.93946 | 21757 ft | 438 kts | 126° |
| 2026-05-06 03:14 | 46.58428 | -121.90322 | 22196 ft | 437 kts | 117° |
| 2026-05-06 03:15 | 46.56916 | -121.86473 | 22638 ft | 440 kts | 116° |
| 2026-05-06 03:15 | 46.55411 | -121.82652 | 23077 ft | 443 kts | 116° |
| 2026-05-06 03:15 | 46.53875 | -121.78765 | 23518 ft | 445 kts | 116° |
| 2026-05-06 03:15 | 46.52322 | -121.74852 | 23870 ft | 448 kts | 116° |
| 2026-05-06 03:16 | 46.50760 | -121.70929 | 24234 ft | 450 kts | 117° |
| 2026-05-06 03:16 | 46.49187 | -121.66985 | 24591 ft | 453 kts | 117° |
| 2026-05-06 03:16 | 46.47605 | -121.63026 | 24944 ft | 455 kts | 117° |
| 2026-05-06 03:16 | 46.46013 | -121.59047 | 25258 ft | 457 kts | 117° |
| 2026-05-06 03:17 | 46.44439 | -121.55111 | 25581 ft | 459 kts | 117° |
| 2026-05-06 03:17 | 46.42840 | -121.51106 | 25908 ft | 460 kts | 117° |
| 2026-05-06 03:17 | 46.41228 | -121.47075 | 26232 ft | 463 kts | 117° |
| 2026-05-06 03:17 | 46.39607 | -121.43036 | 26568 ft | 465 kts | 117° |
| 2026-05-06 03:18 | 46.37968 | -121.38971 | 26898 ft | 468 kts | 117° |
| 2026-05-06 03:18 | 46.36324 | -121.34902 | 27202 ft | 470 kts | 117° |
| 2026-05-06 03:18 | 46.34666 | -121.30809 | 27516 ft | 472 kts | 117° |
| 2026-05-06 03:18 | 46.33002 | -121.26707 | 27897 ft | 472 kts | 117° |
| 2026-05-06 03:19 | 46.31368 | -121.22671 | 28353 ft | 471 kts | 117° |
| 2026-05-06 03:19 | 46.29718 | -121.18592 | 28809 ft | 470 kts | 117° |
| 2026-05-06 03:19 | 46.28064 | -121.14516 | 29255 ft | 470 kts | 117° |
| 2026-05-06 03:19 | 46.26408 | -121.10447 | 29714 ft | 469 kts | 117° |
| 2026-05-06 03:20 | 46.23102 | -121.02346 | 30528 ft | 468 kts | 117° |
| 2026-05-06 03:20 | 46.21452 | -120.98302 | 30897 ft | 467 kts | 117° |
| 2026-05-06 03:20 | 46.19802 | -120.94262 | 31285 ft | 467 kts | 116° |
| 2026-05-06 03:21 | 46.18178 | -120.90286 | 31660 ft | 466 kts | 116° |
| 2026-05-06 03:21 | 46.16528 | -120.86256 | 32068 ft | 465 kts | 116° |
| 2026-05-06 03:21 | 46.14883 | -120.82251 | 32479 ft | 464 kts | 116° |
| 2026-05-06 03:21 | 46.13231 | -120.78247 | 32897 ft | 464 kts | 116° |
| 2026-05-06 03:22 | 46.11581 | -120.74266 | 33312 ft | 463 kts | 116° |
| 2026-05-06 03:22 | 46.09930 | -120.70281 | 33737 ft | 462 kts | 116° |
| 2026-05-06 03:22 | 46.08291 | -120.66314 | 34110 ft | 461 kts | 116° |
| 2026-05-06 03:22 | 46.06650 | -120.62348 | 34447 ft | 460 kts | 116° |
| 2026-05-06 03:23 | 46.05010 | -120.58388 | 34764 ft | 460 kts | 116° |
| 2026-05-06 03:23 | 46.03369 | -120.54431 | 35081 ft | 460 kts | 116° |
| 2026-05-06 03:23 | 46.01751 | -120.50534 | 35394 ft | 460 kts | 116° |
| 2026-05-06 03:23 | 46.00111 | -120.46589 | 35692 ft | 460 kts | 116° |
| 2026-05-06 03:24 | 45.98471 | -120.42650 | 35969 ft | 460 kts | 116° |
| 2026-05-06 03:24 | 45.96825 | -120.38708 | 36215 ft | 460 kts | 116° |
| 2026-05-06 03:24 | 45.95178 | -120.34761 | 36470 ft | 460 kts | 115° |
| 2026-05-06 03:24 | 45.93534 | -120.30819 | 36733 ft | 460 kts | 115° |
| 2026-05-06 03:25 | 45.91887 | -120.26873 | 36869 ft | 462 kts | 115° |
| 2026-05-06 03:25 | 45.90252 | -120.22956 | 36893 ft | 467 kts | 115° |
| 2026-05-06 03:25 | 45.86878 | -120.14915 | 36892 ft | 472 kts | 116° |
| 2026-05-06 03:26 | 45.83469 | -120.06854 | 36887 ft | 473 kts | 116° |
| 2026-05-06 03:26 | 45.80056 | -119.98813 | 36886 ft | 472 kts | 115° |
| 2026-05-06 03:27 | 45.76646 | -119.90764 | 36887 ft | 472 kts | 115° |
| 2026-05-06 03:27 | 45.73255 | -119.82772 | 36897 ft | 473 kts | 115° |
| 2026-05-06 03:28 | 45.69827 | -119.74734 | 36905 ft | 473 kts | 115° |
| 2026-05-06 03:28 | 45.66388 | -119.66702 | 36914 ft | 474 kts | 116° |
| 2026-05-06 03:29 | 45.62938 | -119.58680 | 36921 ft | 474 kts | 115° |
| 2026-05-06 03:29 | 45.59486 | -119.50655 | 36928 ft | 474 kts | 115° |
| 2026-05-06 03:30 | 45.56053 | -119.42693 | 36933 ft | 474 kts | 115° |
| 2026-05-06 03:30 | 45.52589 | -119.34671 | 36940 ft | 475 kts | 116° |
| 2026-05-06 03:31 | 45.49119 | -119.26674 | 36950 ft | 474 kts | 116° |
| 2026-05-06 03:31 | 45.45639 | -119.18686 | 36958 ft | 474 kts | 116° |
| 2026-05-06 03:32 | 45.42185 | -119.10767 | 36970 ft | 474 kts | 116° |
| 2026-05-06 03:32 | 45.38697 | -119.02794 | 36972 ft | 474 kts | 116° |
| 2026-05-06 03:33 | 45.35203 | -118.94830 | 36980 ft | 475 kts | 116° |
| 2026-05-06 03:33 | 45.31697 | -118.86879 | 36991 ft | 474 kts | 116° |
| 2026-05-06 03:34 | 45.28215 | -118.78994 | 37019 ft | 474 kts | 116° |
| 2026-05-06 03:34 | 45.24710 | -118.71076 | 37024 ft | 473 kts | 116° |
| 2026-05-06 03:35 | 45.21207 | -118.63177 | 37039 ft | 473 kts | 116° |
| 2026-05-06 03:35 | 45.17696 | -118.55277 | 37053 ft | 473 kts | 116° |
| 2026-05-06 03:36 | 45.14198 | -118.47439 | 37062 ft | 474 kts | 116° |
| 2026-05-06 03:36 | 45.10672 | -118.39567 | 37054 ft | 474 kts | 116° |
| 2026-05-06 03:37 | 45.07145 | -118.31696 | 37047 ft | 474 kts | 116° |
| 2026-05-06 03:37 | 45.03614 | -118.23839 | 37037 ft | 473 kts | 116° |
| 2026-05-06 03:38 | 45.00098 | -118.16041 | 37031 ft | 473 kts | 116° |
| 2026-05-06 03:38 | 44.96551 | -118.08206 | 37024 ft | 474 kts | 116° |
| 2026-05-06 03:39 | 44.92991 | -118.00374 | 37021 ft | 474 kts | 116° |
| 2026-05-06 03:39 | 44.89435 | -117.92552 | 37025 ft | 474 kts | 116° |
| 2026-05-06 03:40 | 44.85867 | -117.84727 | 37029 ft | 474 kts | 116° |
| 2026-05-06 03:40 | 44.82645 | -117.76770 | 37024 ft | 468 kts | 109° |
| 2026-05-06 03:41 | 44.79782 | -117.68544 | 37022 ft | 468 kts | 109° |
| 2026-05-06 03:41 | 44.76924 | -117.60313 | 37012 ft | 468 kts | 109° |
| 2026-05-06 03:42 | 44.74042 | -117.52082 | 36997 ft | 469 kts | 109° |
| 2026-05-06 03:42 | 44.71145 | -117.43867 | 36978 ft | 469 kts | 109° |
| 2026-05-06 03:43 | 44.68258 | -117.35698 | 36962 ft | 470 kts | 109° |
| 2026-05-06 03:43 | 44.65348 | -117.27469 | 36953 ft | 470 kts | 109° |
| 2026-05-06 03:44 | 44.62430 | -117.19246 | 36952 ft | 470 kts | 109° |
| 2026-05-06 03:44 | 44.59505 | -117.11032 | 36949 ft | 471 kts | 109° |
| 2026-05-06 03:45 | 44.56592 | -117.02883 | 36949 ft | 471 kts | 109° |
| 2026-05-06 03:45 | 44.53650 | -116.94681 | 36948 ft | 470 kts | 109° |
| 2026-05-06 03:46 | 44.50706 | -116.86494 | 36938 ft | 471 kts | 109° |
| 2026-05-06 03:46 | 44.47757 | -116.78311 | 36939 ft | 471 kts | 109° |
| 2026-05-06 03:47 | 44.44822 | -116.70184 | 36935 ft | 471 kts | 109° |
| 2026-05-06 03:47 | 44.41861 | -116.62008 | 36935 ft | 471 kts | 109° |
| 2026-05-06 03:48 | 44.38887 | -116.53833 | 36931 ft | 472 kts | 109° |
| 2026-05-06 03:48 | 44.35907 | -116.45662 | 36933 ft | 471 kts | 109° |
| 2026-05-06 03:49 | 44.32944 | -116.37559 | 36936 ft | 472 kts | 109° |
| 2026-05-06 03:49 | 44.29951 | -116.29413 | 36941 ft | 472 kts | 109° |
| 2026-05-06 03:50 | 44.26952 | -116.21269 | 36938 ft | 471 kts | 109° |
| 2026-05-06 03:50 | 44.23956 | -116.13137 | 36931 ft | 472 kts | 109° |
| 2026-05-06 03:51 | 44.20946 | -116.05007 | 36926 ft | 472 kts | 109° |
| 2026-05-06 03:51 | 44.17950 | -115.96946 | 36932 ft | 472 kts | 109° |
| 2026-05-06 03:52 | 44.14928 | -115.88830 | 36926 ft | 472 kts | 109° |
| 2026-05-06 03:52 | 44.11903 | -115.80732 | 36920 ft | 472 kts | 109° |
| 2026-05-06 03:53 | 44.08865 | -115.72630 | 36914 ft | 472 kts | 109° |
| 2026-05-06 03:53 | 44.05823 | -115.64539 | 36913 ft | 472 kts | 109° |
| 2026-05-06 03:54 | 44.02800 | -115.56514 | 36897 ft | 472 kts | 109° |
| 2026-05-06 03:54 | 43.99747 | -115.48427 | 36892 ft | 473 kts | 109° |
| 2026-05-06 03:55 | 43.96688 | -115.40342 | 36886 ft | 473 kts | 109° |
| 2026-05-06 03:55 | 43.93615 | -115.32258 | 36887 ft | 473 kts | 109° |
| 2026-05-06 03:56 | 43.90533 | -115.24182 | 36888 ft | 474 kts | 110° |
| 2026-05-06 03:56 | 43.87467 | -115.16164 | 36891 ft | 474 kts | 110° |
| 2026-05-06 03:57 | 43.84369 | -115.08083 | 36895 ft | 475 kts | 110° |
| 2026-05-06 03:57 | 43.81253 | -115.00006 | 36899 ft | 475 kts | 110° |
| 2026-05-06 03:58 | 43.78129 | -114.91936 | 36902 ft | 475 kts | 110° |
| 2026-05-06 03:58 | 43.75031 | -114.83931 | 36906 ft | 475 kts | 110° |
| 2026-05-06 03:59 | 43.71913 | -114.75882 | 36912 ft | 475 kts | 110° |
| 2026-05-06 03:59 | 43.68794 | -114.67830 | 36920 ft | 475 kts | 110° |
| 2026-05-06 04:00 | 43.65663 | -114.59793 | 36935 ft | 476 kts | 110° |
| 2026-05-06 04:00 | 43.62531 | -114.51812 | 36950 ft | 476 kts | 110° |
| 2026-05-06 04:01 | 43.59390 | -114.43786 | 36974 ft | 476 kts | 110° |
| 2026-05-06 04:01 | 43.56240 | -114.35754 | 36986 ft | 476 kts | 110° |
| 2026-05-06 04:02 | 43.53087 | -114.27730 | 36986 ft | 476 kts | 110° |
| 2026-05-06 04:02 | 43.49930 | -114.19764 | 36991 ft | 477 kts | 110° |
| 2026-05-06 04:03 | 43.46743 | -114.11754 | 36970 ft | 478 kts | 110° |
| 2026-05-06 04:03 | 43.43545 | -114.03708 | 36950 ft | 479 kts | 110° |
| 2026-05-06 04:04 | 43.40347 | -113.95665 | 36921 ft | 479 kts | 110° |
| 2026-05-06 04:04 | 43.37148 | -113.87681 | 36894 ft | 481 kts | 110° |
| 2026-05-06 04:05 | 43.33919 | -113.79643 | 36882 ft | 481 kts | 110° |
| 2026-05-06 04:05 | 43.30674 | -113.71598 | 36883 ft | 482 kts | 110° |
| 2026-05-06 04:06 | 43.27419 | -113.63533 | 36880 ft | 483 kts | 110° |
| 2026-05-06 04:06 | 43.24168 | -113.55460 | 36875 ft | 484 kts | 110° |
| 2026-05-06 04:07 | 43.20913 | -113.47439 | 36878 ft | 485 kts | 110° |
| 2026-05-06 04:07 | 43.17619 | -113.39344 | 36883 ft | 487 kts | 110° |
| 2026-05-06 04:08 | 43.14318 | -113.31250 | 36882 ft | 487 kts | 111° |
| 2026-05-06 04:08 | 43.11004 | -113.23145 | 36894 ft | 488 kts | 111° |
| 2026-05-06 04:09 | 43.07682 | -113.15046 | 36904 ft | 488 kts | 111° |
| 2026-05-06 04:09 | 43.04376 | -113.07015 | 36910 ft | 488 kts | 111° |
| 2026-05-06 04:10 | 43.01035 | -112.98930 | 36936 ft | 488 kts | 111° |
| 2026-05-06 04:10 | 42.97689 | -112.90858 | 36963 ft | 488 kts | 112° |
| 2026-05-06 04:11 | 42.94339 | -112.82793 | 36989 ft | 488 kts | 112° |
| 2026-05-06 04:11 | 42.90992 | -112.74728 | 37020 ft | 489 kts | 112° |
| 2026-05-06 04:12 | 42.87659 | -112.66723 | 37022 ft | 489 kts | 112° |
| 2026-05-06 04:12 | 42.84839 | -112.58401 | 37024 ft | 482 kts | 106° |
| 2026-05-06 04:13 | 42.82160 | -112.50022 | 37012 ft | 482 kts | 106° |
| 2026-05-06 04:13 | 42.79490 | -112.41708 | 36992 ft | 482 kts | 107° |
| 2026-05-06 04:14 | 42.76788 | -112.33343 | 36965 ft | 483 kts | 107° |
| 2026-05-06 04:14 | 42.74079 | -112.24994 | 36942 ft | 483 kts | 107° |
| 2026-05-06 04:15 | 42.71359 | -112.16652 | 36912 ft | 483 kts | 108° |
| 2026-05-06 04:15 | 42.68632 | -112.08305 | 36909 ft | 483 kts | 108° |
| 2026-05-06 04:16 | 42.65920 | -112.00018 | 36906 ft | 483 kts | 108° |
| 2026-05-06 04:16 | 42.63179 | -111.91686 | 36906 ft | 483 kts | 108° |
| 2026-05-06 04:17 | 42.60429 | -111.83351 | 36904 ft | 484 kts | 109° |
| 2026-05-06 04:17 | 42.57675 | -111.75011 | 36901 ft | 484 kts | 109° |
| 2026-05-06 04:18 | 42.54917 | -111.66679 | 36895 ft | 484 kts | 109° |
| 2026-05-06 04:18 | 42.52141 | -111.58352 | 36896 ft | 485 kts | 109° |
| 2026-05-06 04:19 | 42.49362 | -111.50024 | 36887 ft | 485 kts | 109° |
| 2026-05-06 04:19 | 42.46603 | -111.41760 | 36885 ft | 485 kts | 110° |
| 2026-05-06 04:20 | 42.43810 | -111.33445 | 36889 ft | 485 kts | 110° |
| 2026-05-06 04:20 | 42.41006 | -111.25135 | 36901 ft | 486 kts | 110° |
| 2026-05-06 04:21 | 42.38196 | -111.16819 | 36904 ft | 486 kts | 111° |
| 2026-05-06 04:21 | 42.35398 | -111.08571 | 36906 ft | 486 kts | 111° |
| 2026-05-06 04:22 | 42.32573 | -111.00252 | 36921 ft | 487 kts | 111° |
| 2026-05-06 04:23 | 42.28335 | -110.87797 | 36925 ft | 487 kts | 112° |
| 2026-05-06 04:23 | 42.25507 | -110.79538 | 36945 ft | 488 kts | 112° |
| 2026-05-06 04:24 | 42.22653 | -110.71233 | 36967 ft | 488 kts | 112° |
| 2026-05-06 04:24 | 42.19792 | -110.62921 | 36990 ft | 489 kts | 113° |
| 2026-05-06 04:25 | 42.16921 | -110.54615 | 37008 ft | 489 kts | 113° |
| 2026-05-06 04:25 | 42.14041 | -110.46307 | 37035 ft | 489 kts | 113° |
| 2026-05-06 04:26 | 42.11176 | -110.38059 | 37050 ft | 490 kts | 114° |
| 2026-05-06 04:26 | 42.08276 | -110.29753 | 37070 ft | 490 kts | 114° |
| 2026-05-06 04:27 | 42.05370 | -110.21441 | 37071 ft | 491 kts | 114° |
| 2026-05-06 04:27 | 42.02463 | -110.13132 | 37077 ft | 491 kts | 114° |
| 2026-05-06 04:28 | 41.99566 | -110.04871 | 37075 ft | 492 kts | 115° |
| 2026-05-06 04:28 | 41.96627 | -109.96545 | 37071 ft | 493 kts | 115° |
| 2026-05-06 04:29 | 41.93667 | -109.88227 | 37071 ft | 494 kts | 115° |
| 2026-05-06 04:29 | 41.90701 | -109.79896 | 37067 ft | 495 kts | 115° |
| 2026-05-06 04:30 | 41.87751 | -109.71611 | 37064 ft | 496 kts | 115° |
| 2026-05-06 04:30 | 41.84774 | -109.63257 | 37068 ft | 497 kts | 116° |
| 2026-05-06 04:31 | 41.81783 | -109.54898 | 37055 ft | 497 kts | 116° |
| 2026-05-06 04:31 | 41.78779 | -109.46540 | 37055 ft | 498 kts | 116° |
| 2026-05-06 04:32 | 41.75784 | -109.38226 | 37060 ft | 499 kts | 116° |
| 2026-05-06 04:32 | 41.72763 | -109.29848 | 37070 ft | 500 kts | 117° |
| 2026-05-06 04:33 | 41.69733 | -109.21465 | 37078 ft | 500 kts | 117° |
| 2026-05-06 04:33 | 41.66688 | -109.13097 | 37082 ft | 501 kts | 117° |
| 2026-05-06 04:34 | 41.63637 | -109.04719 | 37079 ft | 501 kts | 117° |
| 2026-05-06 04:34 | 41.60600 | -108.96411 | 37083 ft | 501 kts | 118° |
| 2026-05-06 04:35 | 41.57535 | -108.88042 | 37081 ft | 501 kts | 118° |
| 2026-05-06 04:35 | 41.54458 | -108.79681 | 37082 ft | 502 kts | 118° |
| 2026-05-06 04:36 | 41.51372 | -108.71329 | 37078 ft | 502 kts | 118° |
| 2026-05-06 04:36 | 41.48284 | -108.62978 | 37087 ft | 502 kts | 118° |
| 2026-05-06 04:37 | 41.45222 | -108.54675 | 37077 ft | 503 kts | 119° |
| 2026-05-06 04:37 | 41.42119 | -108.46327 | 37072 ft | 503 kts | 119° |
| 2026-05-06 04:38 | 41.38991 | -108.37988 | 37055 ft | 503 kts | 119° |
| 2026-05-06 04:38 | 41.36401 | -108.29307 | 37057 ft | 507 kts | 109° |
| 2026-05-06 04:39 | 41.34272 | -108.20431 | 37046 ft | 507 kts | 110° |
| 2026-05-06 04:39 | 41.32084 | -108.11513 | 37045 ft | 508 kts | 110° |
| 2026-05-06 04:40 | 41.29873 | -108.02590 | 37037 ft | 508 kts | 110° |
| 2026-05-06 04:40 | 41.27664 | -107.93659 | 37036 ft | 509 kts | 111° |
| 2026-05-06 04:41 | 41.25469 | -107.84782 | 37025 ft | 509 kts | 111° |
| 2026-05-06 04:41 | 41.23256 | -107.75848 | 37034 ft | 509 kts | 111° |
| 2026-05-06 04:42 | 41.21032 | -107.66915 | 37031 ft | 510 kts | 111° |
| 2026-05-06 04:42 | 41.18795 | -107.57976 | 37038 ft | 510 kts | 111° |
| 2026-05-06 04:43 | 41.16565 | -107.49093 | 37034 ft | 511 kts | 111° |
| 2026-05-06 04:43 | 41.14300 | -107.40150 | 37035 ft | 512 kts | 111° |
| 2026-05-06 04:44 | 41.12028 | -107.31186 | 37023 ft | 513 kts | 112° |
| 2026-05-06 04:44 | 41.09745 | -107.22201 | 37017 ft | 514 kts | 112° |
| 2026-05-06 04:45 | 41.07471 | -107.13274 | 37001 ft | 516 kts | 112° |
| 2026-05-06 04:45 | 41.05163 | -107.04254 | 36984 ft | 517 kts | 112° |
| 2026-05-06 04:46 | 41.02845 | -106.95227 | 36973 ft | 518 kts | 112° |
| 2026-05-06 04:46 | 41.00510 | -106.86185 | 36975 ft | 520 kts | 112° |
| 2026-05-06 04:47 | 40.98178 | -106.77184 | 36893 ft | 522 kts | 113° |
| 2026-05-06 04:47 | 40.96999 | -106.72646 | 36639 ft | 522 kts | 113° |
| 2026-05-06 04:47 | 40.95818 | -106.68102 | 36386 ft | 522 kts | 113° |
| 2026-05-06 04:47 | 40.94638 | -106.63563 | 36129 ft | 522 kts | 113° |
| 2026-05-06 04:48 | 40.93454 | -106.59019 | 35879 ft | 522 kts | 113° |
| 2026-05-06 04:48 | 40.92272 | -106.54481 | 35636 ft | 522 kts | 113° |
| 2026-05-06 04:48 | 40.91102 | -106.50010 | 35393 ft | 522 kts | 113° |
| 2026-05-06 04:48 | 40.89912 | -106.45476 | 35151 ft | 522 kts | 113° |
| 2026-05-06 04:49 | 40.88717 | -106.40940 | 34920 ft | 522 kts | 113° |
| 2026-05-06 04:49 | 40.87517 | -106.36412 | 34681 ft | 522 kts | 113° |
| 2026-05-06 04:49 | 40.86317 | -106.31890 | 34440 ft | 522 kts | 113° |
| 2026-05-06 04:49 | 40.85116 | -106.27362 | 34215 ft | 522 kts | 113° |
| 2026-05-06 04:50 | 40.83753 | -106.22935 | 33964 ft | 518 kts | 120° |
| 2026-05-06 04:50 | 40.82229 | -106.18624 | 33538 ft | 518 kts | 120° |
| 2026-05-06 04:50 | 40.80690 | -106.14290 | 32439 ft | 524 kts | 119° |
| 2026-05-06 04:50 | 40.79177 | -106.10033 | 32012 ft | 515 kts | 118° |
| 2026-05-06 04:51 | 40.77669 | -106.05787 | 31440 ft | 507 kts | 118° |
| 2026-05-06 04:51 | 40.76185 | -106.01611 | 30563 ft | 498 kts | 117° |
| 2026-05-06 04:51 | 40.74729 | -105.97520 | 29662 ft | 488 kts | 117° |
| 2026-05-06 04:51 | 40.73299 | -105.93512 | 28685 ft | 478 kts | 117° |
| 2026-05-06 04:52 | 40.71894 | -105.89584 | 27738 ft | 470 kts | 117° |
| 2026-05-06 04:52 | 40.70509 | -105.85721 | 26809 ft | 462 kts | 117° |
| 2026-05-06 04:52 | 40.69163 | -105.81979 | 26006 ft | 456 kts | 117° |
| 2026-05-06 04:52 | 40.67813 | -105.78235 | 25638 ft | 449 kts | 117° |
| 2026-05-06 04:53 | 40.66479 | -105.74537 | 25387 ft | 445 kts | 117° |
| 2026-05-06 04:53 | 40.65156 | -105.70873 | 25211 ft | 443 kts | 117° |
| 2026-05-06 04:53 | 40.63833 | -105.67216 | 24889 ft | 441 kts | 117° |
| 2026-05-06 04:53 | 40.62519 | -105.63585 | 24218 ft | 435 kts | 117° |
| 2026-05-06 04:54 | 40.61220 | -105.59989 | 23638 ft | 434 kts | 117° |
| 2026-05-06 04:54 | 40.59932 | -105.56429 | 22995 ft | 427 kts | 117° |
| 2026-05-06 04:54 | 40.58653 | -105.52894 | 22494 ft | 427 kts | 117° |
| 2026-05-06 04:54 | 40.57407 | -105.49460 | 22341 ft | 416 kts | 117° |
| 2026-05-06 04:55 | 40.56172 | -105.46056 | 22027 ft | 409 kts | 117° |
| 2026-05-06 04:55 | 40.54952 | -105.42705 | 21749 ft | 403 kts | 117° |
| 2026-05-06 04:55 | 40.53744 | -105.39395 | 21496 ft | 401 kts | 117° |
| 2026-05-06 04:55 | 40.52539 | -105.36100 | 21175 ft | 399 kts | 117° |
| 2026-05-06 04:56 | 40.51340 | -105.32818 | 20687 ft | 397 kts | 117° |
| 2026-05-06 04:56 | 40.50145 | -105.29552 | 20200 ft | 396 kts | 117° |
| 2026-05-06 04:56 | 40.48953 | -105.26306 | 19761 ft | 393 kts | 117° |
| 2026-05-06 04:56 | 40.47786 | -105.23131 | 19337 ft | 390 kts | 117° |
| 2026-05-06 04:57 | 40.46538 | -105.20039 | 19199 ft | 376 kts | 125° |
| 2026-05-06 04:57 | 40.44939 | -105.17419 | 19078 ft | 361 kts | 137° |
| 2026-05-06 04:57 | 40.43051 | -105.15325 | 18846 ft | 351 kts | 148° |
| 2026-05-06 04:57 | 40.41073 | -105.13494 | 18717 ft | 347 kts | 148° |
| 2026-05-06 04:58 | 40.39770 | -105.12286 | 18589 ft | 346 kts | 148° |
| 2026-05-06 04:58 | 40.37147 | -105.09852 | 18266 ft | 344 kts | 148° |
| 2026-05-06 04:58 | 40.35857 | -105.08656 | 18167 ft | 343 kts | 148° |
| 2026-05-06 04:58 | 40.33279 | -105.06265 | 17946 ft | 342 kts | 148° |
| 2026-05-06 04:59 | 40.31340 | -105.04465 | 17779 ft | 341 kts | 148° |
| 2026-05-06 04:59 | 40.29409 | -105.02678 | 17622 ft | 340 kts | 148° |
| 2026-05-06 04:59 | 40.27484 | -105.00899 | 17453 ft | 338 kts | 148° |
| 2026-05-06 04:59 | 40.25563 | -104.99127 | 17292 ft | 337 kts | 148° |
| 2026-05-06 05:00 | 40.24290 | -104.97951 | 17178 ft | 337 kts | 148° |
| 2026-05-06 05:00 | 40.22384 | -104.96189 | 17020 ft | 336 kts | 148° |
| 2026-05-06 05:00 | 40.20479 | -104.94430 | 16759 ft | 334 kts | 148° |
| 2026-05-06 05:00 | 40.18565 | -104.92713 | 16524 ft | 332 kts | 153° |
| 2026-05-06 05:01 | 40.15824 | -104.91037 | 16180 ft | 328 kts | 160° |
| 2026-05-06 05:01 | 40.13731 | -104.89861 | 15942 ft | 326 kts | 160° |
| 2026-05-06 05:01 | 40.11649 | -104.88689 | 15697 ft | 325 kts | 160° |
| 2026-05-06 05:01 | 40.10276 | -104.87915 | 15539 ft | 324 kts | 160° |
| 2026-05-06 05:02 | 40.08210 | -104.86749 | 15300 ft | 323 kts | 160° |
| 2026-05-06 05:02 | 40.06151 | -104.85587 | 15065 ft | 322 kts | 160° |
| 2026-05-06 05:02 | 40.04094 | -104.84425 | 14827 ft | 321 kts | 160° |
| 2026-05-06 05:02 | 40.02051 | -104.83262 | 14586 ft | 319 kts | 160° |
| 2026-05-06 05:03 | 40.00034 | -104.82107 | 14351 ft | 315 kts | 159° |
| 2026-05-06 05:03 | 39.98022 | -104.81024 | 14113 ft | 310 kts | 166° |
| 2026-05-06 05:03 | 39.95925 | -104.80473 | 13787 ft | 307 kts | 179° |
| 2026-05-06 05:03 | 39.93781 | -104.80469 | 13195 ft | 311 kts | 185° |
| 2026-05-06 05:04 | 39.91634 | -104.80540 | 12669 ft | 314 kts | 184° |
| 2026-05-06 05:04 | 39.89442 | -104.80608 | 12156 ft | 317 kts | 184° |
| 2026-05-06 05:04 | 39.87231 | -104.80672 | 11633 ft | 319 kts | 183° |
| 2026-05-06 05:04 | 39.85016 | -104.80738 | 11335 ft | 313 kts | 182° |
| 2026-05-06 05:05 | 39.82883 | -104.80799 | 11246 ft | 301 kts | 182° |
| 2026-05-06 05:05 | 39.80853 | -104.80844 | 11112 ft | 281 kts | 182° |
| 2026-05-06 05:05 | 39.78964 | -104.80873 | 10980 ft | 262 kts | 181° |
| 2026-05-06 05:05 | 39.77155 | -104.80894 | 10800 ft | 260 kts | 181° |
| 2026-05-06 05:06 | 39.75377 | -104.80911 | 10571 ft | 257 kts | 181° |
| 2026-05-06 05:06 | 39.73599 | -104.80925 | 10325 ft | 255 kts | 181° |
| 2026-05-06 05:06 | 39.71834 | -104.80941 | 10094 ft | 253 kts | 180° |
| 2026-05-06 05:06 | 39.70077 | -104.80957 | 9848 ft | 251 kts | 180° |
| 2026-05-06 05:07 | 39.68332 | -104.80971 | 9584 ft | 250 kts | 180° |
| 2026-05-06 05:07 | 39.66594 | -104.80985 | 9323 ft | 249 kts | 180° |
| 2026-05-06 05:07 | 39.64901 | -104.80726 | 9061 ft | 245 kts | 158° |
| 2026-05-06 05:07 | 39.63566 | -104.79456 | 8967 ft | 234 kts | 126° |
| 2026-05-06 05:08 | 39.62977 | -104.77608 | 8980 ft | 220 kts | 102° |
| 2026-05-06 05:08 | 39.62748 | -104.75685 | 8986 ft | 212 kts | 98° |
| 2026-05-06 05:08 | 39.62715 | -104.73793 | 8989 ft | 210 kts | 82° |
| 2026-05-06 05:08 | 39.63146 | -104.71995 | 9014 ft | 210 kts | 63° |
| 2026-05-06 05:09 | 39.64015 | -104.70479 | 8986 ft | 210 kts | 44° |
| 2026-05-06 05:09 | 39.65220 | -104.69425 | 8982 ft | 211 kts | 24° |
| 2026-05-06 05:09 | 39.66637 | -104.68958 | 8990 ft | 211 kts | 4° |
| 2026-05-06 05:09 | 39.68107 | -104.68929 | 8973 ft | 212 kts | 1° |
| 2026-05-06 05:10 | 39.69578 | -104.68914 | 8772 ft | 211 kts | 1° |
| 2026-05-06 05:10 | 39.71019 | -104.68898 | 8515 ft | 209 kts | 1° |
| 2026-05-06 05:10 | 39.72462 | -104.68881 | 8242 ft | 207 kts | 1° |
| 2026-05-06 05:10 | 39.73877 | -104.68865 | 7974 ft | 198 kts | 1° |
| 2026-05-06 05:11 | 39.75197 | -104.68850 | 7726 ft | 181 kts | 1° |
| 2026-05-06 05:11 | 39.76381 | -104.68836 | 7504 ft | 162 kts | 1° |
| 2026-05-06 05:11 | 39.77482 | -104.68823 | 7297 ft | 155 kts | 2° |
| 2026-05-06 05:11 | 39.78550 | -104.68811 | 7124 ft | 152 kts | 2° |
| 2026-05-06 05:12 | 39.79584 | -104.68798 | 6921 ft | 150 kts | 2° |
| 2026-05-06 05:12 | 39.80621 | -104.68786 | 6736 ft | 149 kts | 2° |
| 2026-05-06 05:12 | 39.81654 | -104.68774 | 6529 ft | 148 kts | 2° |
| 2026-05-06 05:12 | 39.82681 | -104.68762 | 6263 ft | 146 kts | 2° |
| 2026-05-06 05:13 | 39.83689 | -104.68751 | 6006 ft | 144 kts | 1° |
| 2026-05-06 05:13 | 39.84680 | -104.68739 | 5776 ft | 141 kts | 1° |
| 2026-05-06 05:13 | 39.85658 | -104.68728 | 5567 ft | 140 kts | 1° |
| 2026-05-06 05:13 | 39.86628 | -104.68714 | 5406 ft | 139 kts | 2° |
| 2026-05-06 05:14 | 39.87529 | -104.68686 | 5366 ft | 115 kts | 358° |
| 2026-05-06 05:14 | 39.88154 | -104.68697 | 5365 ft | 65 kts | 0° |
| 2026-05-06 05:14 | 39.88453 | -104.68660 | 5364 ft | 33 kts | 17° |
| 2026-05-06 05:14 | 39.88587 | -104.68585 | 5364 ft | 15 kts | 29° |
| 2026-05-06 05:15 | 39.88592 | -104.68488 | 5366 ft | 14 kts | 155° |
| 2026-05-06 05:15 | 39.88538 | -104.68479 | 5365 ft | 7 kts | 176° |
| 2026-05-06 05:15 | 39.88487 | -104.68481 | 5365 ft | 8 kts | 181° |
| 2026-05-06 05:15 | 39.88422 | -104.68483 | 5364 ft | 10 kts | 181° |
| 2026-05-06 05:16 | 39.88344 | -104.68483 | 5364 ft | 12 kts | 180° |
| 2026-05-06 05:16 | 39.88252 | -104.68483 | 5364 ft | 14 kts | 180° |
| 2026-05-06 05:16 | 39.88149 | -104.68484 | 5365 ft | 16 kts | 180° |
| 2026-05-06 05:16 | 39.88029 | -104.68485 | 5365 ft | 18 kts | 180° |
| 2026-05-06 05:17 | 39.87898 | -104.68487 | 5365 ft | 18 kts | 181° |
| 2026-05-06 05:17 | 39.87767 | -104.68488 | 5366 ft | 20 kts | 180° |
| 2026-05-06 05:17 | 39.87623 | -104.68488 | 5365 ft | 21 kts | 180° |
| 2026-05-06 05:17 | 39.87486 | -104.68491 | 5364 ft | 20 kts | 181° |
| 2026-05-06 05:18 | 39.87370 | -104.68490 | 5364 ft | 17 kts | 180° |
| 2026-05-06 05:18 | 39.87254 | -104.68491 | 5365 ft | 16 kts | 181° |
| 2026-05-06 05:18 | 39.87144 | -104.68494 | 5364 ft | 17 kts | 181° |
| 2026-05-06 05:18 | 39.87021 | -104.68497 | 5365 ft | 19 kts | 181° |
| 2026-05-06 05:19 | 39.86900 | -104.68499 | 5364 ft | 17 kts | 180° |
| 2026-05-06 05:19 | 39.86776 | -104.68500 | 5364 ft | 19 kts | 180° |
| 2026-05-06 05:19 | 39.86638 | -104.68500 | 5365 ft | 21 kts | 180° |
| 2026-05-06 05:19 | 39.86491 | -104.68504 | 5366 ft | 22 kts | 181° |
| 2026-05-06 05:20 | 39.86339 | -104.68506 | 5365 ft | 22 kts | 181° |
| 2026-05-06 05:20 | 39.86208 | -104.68506 | 5364 ft | 16 kts | 181° |
| 2026-05-06 05:20 | 39.86100 | -104.68508 | 5366 ft | 13 kts | 181° |
| 2026-05-06 05:20 | 39.86036 | -104.68467 | 5365 ft | 11 kts | 110° |
| 2026-05-06 05:21 | 39.86032 | -104.68370 | 5366 ft | 11 kts | 90° |
| 2026-05-06 05:21 | 39.86032 | -104.68263 | 5366 ft | 12 kts | 90° |
| 2026-05-06 05:21 | 39.86008 | -104.68157 | 5364 ft | 11 kts | 102° |
| 2026-05-06 05:21 | 39.86007 | -104.68101 | 5366 ft | 6 kts | 91° |
| 2026-05-06 05:22 | 39.86006 | -104.68030 | 5366 ft | 10 kts | 90° |
| 2026-05-06 05:22 | 39.86005 | -104.67949 | 5366 ft | 6 kts | 91° |
| 2026-05-06 05:22 | 39.85982 | -104.67915 | 5364 ft | 5 kts | 168° |
| 2026-05-06 05:22 | 39.85958 | -104.67914 | 5366 ft | 3 kts | 179° |
| 2026-05-06 05:23 | 39.85945 | -104.67914 | 5364 ft | 1 kts | 180° |
| 2026-05-06 05:23 | 39.85943 | -104.67914 | 5364 ft | 0 kts | 180° |